Time;durP1;ratioP1;P1;durP2;ratioP2;P2;SDS_P1;SDS_P2;PMS_P1;PMS_P2;Temp;Humidity;BMP_temperature;BMP_pressure;BME280_temperature;BME280_humidity;BME280_pressure;Samples;Min_cycle;Max_cycle;Signal;HPM_P1;HPM_P2
2022/09/15 00:00:15;;;;;;;4.03;1.42;;;15.50;99.90;;;;;;5053022;28;20029;-49
2022/09/15 00:02:41;;;;;;;4.00;1.42;;;15.40;99.90;;;;;;5052867;28;20399;-47
2022/09/15 00:05:07;;;;;;;6.90;1.77;;;15.40;99.90;;;;;;5052682;28;20052;-48
2022/09/15 00:07:34;;;;;;;2.88;1.52;;;15.30;99.90;;;;;;5052985;28;20068;-50
2022/09/15 00:09:59;;;;;;;3.67;1.45;;;15.30;99.90;;;;;;5052690;28;20108;-47
2022/09/15 00:12:26;;;;;;;4.50;1.35;;;15.40;99.90;;;;;;5051298;28;20120;-47
2022/09/15 00:14:52;;;;;;;4.63;1.45;;;15.40;99.90;;;;;;5052687;28;20041;-46
2022/09/15 00:17:18;;;;;;;5.07;1.73;;;15.40;99.90;;;;;;5052277;28;20098;-47
2022/09/15 00:19:44;;;;;;;6.95;2.95;;;15.30;99.90;;;;;;5052736;28;20036;-46
2022/09/15 00:22:09;;;;;;;6.03;3.50;;;15.30;99.90;;;;;;5052643;28;20091;-46
2022/09/15 00:24:35;;;;;;;7.03;3.42;;;15.30;99.90;;;;;;5052698;28;20043;-46
2022/09/15 00:27:01;;;;;;;5.93;3.22;;;15.30;99.90;;;;;;5052599;28;20036;-46
2022/09/15 00:29:26;;;;;;;7.68;3.78;;;15.30;99.90;;;;;;5051077;28;20426;-51
2022/09/15 00:31:52;;;;;;;11.45;4.15;;;15.30;99.90;;;;;;5052340;28;20410;-46
2022/09/15 00:34:18;;;;;;;6.45;3.90;;;15.20;99.90;;;;;;5051654;28;20175;-47
2022/09/15 00:36:43;;;;;;;8.60;4.35;;;15.10;99.90;;;;;;5052130;28;20135;-48
2022/09/15 00:39:09;;;;;;;10.20;4.13;;;15.10;99.90;;;;;;5052310;28;20044;-46
2022/09/15 00:41:37;;;;;;;7.28;3.70;;;15.10;99.90;;;;;;5051931;28;20043;-46
2022/09/15 00:44:34;;;;;;;7.13;4.03;;;15.10;99.90;;;;;;5052305;28;20502;-47
2022/09/15 00:47:02;;;;;;;7.55;4.03;;;15.00;99.90;;;;;;5051399;28;20033;-46
2022/09/15 00:49:32;;;;;;;7.55;4.00;;;14.90;99.90;;;;;;5051849;28;20033;-46
2022/09/15 00:52:19;;;;;;;8.65;3.75;;;14.90;99.90;;;;;;5049836;28;20108;-47
2022/09/15 00:54:57;;;;;;;8.32;3.80;;;14.80;99.90;;;;;;5052064;28;20033;-49
2022/09/15 00:57:35;;;;;;;7.40;4.00;;;14.80;99.90;;;;;;5032770;28;20052;-47
2022/09/15 01:00:05;;;;;;;7.78;3.67;;;14.70;99.90;;;;;;5051599;28;20060;-47
2022/09/15 01:02:33;;;;;;;7.90;3.38;;;14.70;99.90;;;;;;5051429;28;20071;-46
2022/09/15 01:05:00;;;;;;;7.30;3.00;;;14.60;99.90;;;;;;5051549;28;20068;-47
2022/09/15 01:07:50;;;;;;;7.43;3.20;;;14.50;99.90;;;;;;5051269;28;20033;-48
2022/09/15 01:10:22;;;;;;;6.95;3.30;;;14.60;99.90;;;;;;5051417;28;20464;-47
2022/09/15 01:12:48;;;;;;;6.32;2.97;;;14.50;99.90;;;;;;5051688;28;20040;-46
2022/09/15 01:15:15;;;;;;;10.52;3.45;;;14.50;99.90;;;;;;5050758;28;20488;-47
2022/09/15 01:18:22;;;;;;;7.45;3.33;;;14.60;99.90;;;;;;5051560;28;20118;-49
2022/09/15 01:20:50;;;;;;;5.60;3.42;;;14.60;99.90;;;;;;5010183;28;20053;-46
2022/09/15 01:23:38;;;;;;;6.95;3.30;;;14.60;99.90;;;;;;5051516;28;20480;-48
2022/09/15 01:26:19;;;;;;;8.00;3.10;;;14.60;99.90;;;;;;5051106;28;20041;-47
2022/09/15 01:29:03;;;;;;;9.85;3.40;;;14.70;99.90;;;;;;5051373;28;20582;-47
2022/09/15 01:34:42;;;;;;;8.75;3.28;;;14.60;99.90;;;;;;5050183;28;20524;-47
2022/09/15 01:37:14;;;;;;;11.40;3.35;;;14.70;99.90;;;;;;5051070;28;20033;-47
2022/09/15 01:39:43;;;;;;;5.53;3.30;;;14.60;99.90;;;;;;5050687;28;20033;-47
2022/09/15 01:42:13;;;;;;;7.10;3.13;;;14.60;99.90;;;;;;5050984;28;20104;-48
2022/09/15 01:44:48;;;;;;;8.07;3.10;;;14.50;99.90;;;;;;5016337;28;20037;-47
2022/09/15 01:47:17;;;;;;;8.68;3.08;;;14.60;99.90;;;;;;5050792;28;20392;-46
2022/09/15 01:50:01;;;;;;;9.18;2.95;;;14.60;99.90;;;;;;5050683;28;20119;-46
2022/09/15 01:52:28;;;;;;;10.30;3.00;;;14.60;99.90;;;;;;5050922;28;20036;-46
2022/09/15 01:54:59;;;;;;;5.53;2.78;;;14.50;99.90;;;;;;5049785;28;20118;-48
2022/09/15 01:57:25;;;;;;;9.90;3.08;;;14.60;99.90;;;;;;5050978;28;20037;-47
2022/09/15 01:59:54;;;;;;;7.93;2.83;;;14.50;99.90;;;;;;5049219;28;20049;-45
2022/09/15 02:02:34;;;;;;;5.43;2.63;;;14.50;99.90;;;;;;5048900;28;20037;-45
2022/09/15 02:05:06;;;;;;;6.45;2.45;;;14.70;99.90;;;;;;5049720;28;20033;-47
2022/09/15 02:07:55;;;;;;;6.45;2.80;;;14.60;99.90;;;;;;5050890;28;20064;-45
2022/09/15 02:10:49;;;;;;;7.93;2.60;;;14.60;99.90;;;;;;5047863;28;20041;-48
2022/09/15 02:13:33;;;;;;;5.68;2.10;;;14.50;99.90;;;;;;5046959;28;20091;-45
2022/09/15 02:15:59;;;;;;;7.43;2.47;;;14.60;99.90;;;;;;5050027;28;20065;-46
2022/09/15 02:18:40;;;;;;;6.22;2.30;;;14.70;99.90;;;;;;5056144;28;20510;-46
2022/09/15 02:21:29;;;;;;;8.45;2.35;;;14.70;99.90;;;;;;5057375;28;20044;-46
2022/09/15 02:24:02;;;;;;;5.78;2.05;;;14.70;99.90;;;;;;5056916;28;20051;-47
2022/09/15 02:26:31;;;;;;;7.30;2.30;;;14.50;99.90;;;;;;5056505;28;20499;-46
2022/09/15 02:29:01;;;;;;;9.25;2.20;;;14.50;99.90;;;;;;5057293;28;20041;-46
2022/09/15 02:31:29;;;;;;;8.85;1.83;;;14.50;99.90;;;;;;5057479;28;20383;-46
2022/09/15 02:34:00;;;;;;;7.60;1.98;;;14.60;99.90;;;;;;5057150;28;20392;-46
2022/09/15 02:36:28;;;;;;;7.50;1.67;;;14.50;99.90;;;;;;5029134;28;20052;-47
2022/09/15 02:39:00;;;;;;;4.80;1.33;;;14.50;99.90;;;;;;5056768;28;20048;-48
2022/09/15 02:41:26;;;;;;;6.05;1.35;;;14.50;99.90;;;;;;5039688;28;20132;-46
2022/09/15 02:43:52;;;;;;;4.97;1.23;;;14.50;99.90;;;;;;5056990;28;20194;-46
2022/09/15 02:46:21;;;;;;;4.97;0.90;;;14.60;99.90;;;;;;5056474;28;20040;-47
2022/09/15 02:48:47;;;;;;;7.63;1.25;;;14.60;99.90;;;;;;5057096;28;20492;-46
2022/09/15 02:51:15;;;;;;;5.95;1.30;;;14.50;99.90;;;;;;5057175;28;20045;-46
2022/09/15 02:53:41;;;;;;;6.18;1.30;;;14.60;99.90;;;;;;5056866;28;20052;-46
2022/09/15 02:56:07;;;;;;;4.40;1.17;;;14.50;99.90;;;;;;5057015;28;20507;-45
2022/09/15 02:58:33;;;;;;;4.53;1.35;;;14.60;99.90;;;;;;5057242;28;20037;-49
2022/09/15 03:01:04;;;;;;;6.60;1.40;;;14.50;99.90;;;;;;5056746;28;20498;-51
2022/09/15 03:03:31;;;;;;;5.78;1.50;;;14.50;99.90;;;;;;5057191;28;20068;-47
2022/09/15 03:06:16;;;;;;;5.65;1.60;;;14.50;99.90;;;;;;5057066;28;20079;-46
2022/09/15 03:08:50;;;;;;;6.00;1.25;;;14.50;99.90;;;;;;5057128;28;20048;-47
2022/09/15 03:11:19;;;;;;;;;;;14.50;99.90;;;;;;5057343;28;20048;-48
2022/09/15 03:13:46;;;;;;;6.88;1.27;;;14.50;99.90;;;;;;5056710;28;19928;-46
2022/09/15 03:16:14;;;;;;;9.23;1.67;;;14.50;99.90;;;;;;5056056;28;20053;-47
2022/09/15 03:18:41;;;;;;;4.20;1.15;;;14.40;99.90;;;;;;5056898;28;20025;-46
2022/09/15 03:21:10;;;;;;;6.45;1.02;;;14.50;99.90;;;;;;5057002;28;20380;-46
2022/09/15 03:23:36;;;;;;;4.90;0.85;;;14.40;99.90;;;;;;5056692;28;20041;-48
2022/09/15 03:26:03;;;;;;;6.45;1.05;;;14.40;99.90;;;;;;5056740;28;20033;-47
2022/09/15 03:28:28;;;;;;;5.72;1.17;;;14.40;99.90;;;;;;5055520;28;20025;-47
2022/09/15 03:30:55;;;;;;;5.32;1.70;;;14.40;99.90;;;;;;5053214;28;20090;-49
2022/09/15 03:33:22;;;;;;;5.40;1.60;;;14.40;99.90;;;;;;5053819;28;20122;-49
2022/09/15 03:35:50;;;;;;;6.18;1.20;;;14.40;99.90;;;;;;5053432;28;20048;-46
2022/09/15 03:38:16;;;;;;;5.80;1.30;;;14.40;99.90;;;;;;5053252;28;20033;-46
2022/09/15 03:40:42;;;;;;;6.53;1.20;;;14.40;99.90;;;;;;5053348;28;20090;-46
2022/09/15 03:43:09;;;;;;;6.85;1.20;;;14.40;99.90;;;;;;5053220;28;20094;-45
2022/09/15 03:45:36;;;;;;;6.00;1.10;;;14.40;99.90;;;;;;5052954;28;20048;-46
2022/09/15 03:48:04;;;;;;;5.20;0.93;;;14.30;99.90;;;;;;5053262;28;20041;-48
2022/09/15 03:50:30;;;;;;;4.75;1.05;;;14.40;99.90;;;;;;5053221;28;20036;-49
2022/09/15 03:52:58;;;;;;;6.45;1.00;;;14.30;99.90;;;;;;5052853;28;20037;-46
2022/09/15 03:55:24;;;;;;;4.63;1.00;;;14.40;99.90;;;;;;5053097;28;20235;-46
2022/09/15 03:57:50;;;;;;;5.97;1.08;;;14.30;99.90;;;;;;5034929;28;20553;-46
2022/09/15 04:00:15;;;;;;;5.90;1.00;;;14.30;99.90;;;;;;5053222;28;20458;-46
2022/09/15 04:02:41;;;;;;;5.05;0.90;;;14.30;99.90;;;;;;5051614;28;20076;-46
2022/09/15 04:05:07;;;;;;;5.70;1.20;;;14.30;99.90;;;;;;5053070;28;20426;-46
2022/09/15 04:07:33;;;;;;;7.20;1.30;;;14.30;99.90;;;;;;5053408;28;20450;-48
2022/09/15 04:09:59;;;;;;;11.50;1.23;;;14.30;99.90;;;;;;5052846;28;20132;-51
2022/09/15 04:12:25;;;;;;;7.10;1.35;;;14.30;99.90;;;;;;5053071;28;20178;-49
2022/09/15 04:14:52;;;;;;;5.93;1.52;;;14.30;99.90;;;;;;5052171;28;20049;-47
2022/09/15 04:17:18;;;;;;;5.60;0.90;;;14.20;99.90;;;;;;5052166;28;20055;-48
2022/09/15 04:19:44;;;;;;;6.55;1.27;;;14.20;99.90;;;;;;5052450;28;20516;-47
2022/09/15 04:22:09;;;;;;;5.88;0.90;;;14.20;99.90;;;;;;5052487;28;20472;-46
2022/09/15 04:24:35;;;;;;;5.72;1.40;;;14.30;99.90;;;;;;5052742;28;20033;-47
2022/09/15 04:27:01;;;;;;;3.72;0.98;;;14.20;99.90;;;;;;5052686;28;20519;-45
2022/09/15 04:29:26;;;;;;;8.98;1.63;;;14.20;99.90;;;;;;5052635;28;20049;-49
2022/09/15 04:31:52;;;;;;;5.22;1.10;;;14.20;99.90;;;;;;5052527;28;20442;-45
2022/09/15 04:34:18;;;;;;;5.97;1.30;;;14.30;99.90;;;;;;5052503;28;20047;-47
2022/09/15 04:36:44;;;;;;;5.53;0.95;;;14.20;99.90;;;;;;5052418;28;20095;-51
2022/09/15 04:39:09;;;;;;;6.85;1.20;;;14.30;99.90;;;;;;5052174;28;20396;-48
2022/09/15 04:41:35;;;;;;;5.75;1.27;;;14.30;99.90;;;;;;5050999;28;20037;-47
2022/09/15 04:44:01;;;;;;;4.45;1.10;;;14.30;99.90;;;;;;5052237;28;20029;-50
2022/09/15 04:46:27;;;;;;;10.43;1.30;;;14.20;99.90;;;;;;5051613;28;20076;-50
2022/09/15 04:48:54;;;;;;;5.93;1.30;;;14.20;99.90;;;;;;5052201;28;20075;-46
2022/09/15 04:51:21;;;;;;;4.93;1.40;;;14.20;99.90;;;;;;5052278;28;20128;-47
2022/09/15 04:53:48;;;;;;;7.72;1.55;;;14.30;99.90;;;;;;5052100;28;20040;-50
2022/09/15 04:56:16;;;;;;;7.35;1.60;;;14.30;99.90;;;;;;5051691;28;20033;-47
2022/09/15 04:58:51;;;;;;;6.15;1.20;;;14.30;99.90;;;;;;5051965;28;20041;-50
2022/09/15 05:01:18;;;;;;;;;;;14.30;99.90;;;;;;5052526;28;20384;-48
2022/09/15 05:03:45;;;;;;;7.32;1.30;;;14.30;99.90;;;;;;5051873;28;19917;-47
2022/09/15 05:06:14;;;;;;;5.68;1.20;;;14.30;99.90;;;;;;5051723;28;20048;-46
2022/09/15 05:08:40;;;;;;;3.38;0.82;;;14.30;99.90;;;;;;5051799;28;20071;-46
2022/09/15 05:11:09;;;;;;;7.88;1.50;;;14.40;99.90;;;;;;5051819;28;20391;-49
2022/09/15 05:13:36;;;;;;;5.28;1.02;;;14.40;99.90;;;;;;5051745;28;20041;-49
2022/09/15 05:16:19;;;;;;;7.68;1.65;;;14.50;99.90;;;;;;5050936;28;20098;-47
2022/09/15 05:18:47;;;;;;;9.48;1.30;;;14.40;99.90;;;;;;5051253;28;20041;-46
2022/09/15 05:21:14;;;;;;;6.82;1.10;;;14.40;99.90;;;;;;5051670;28;20545;-49
2022/09/15 05:23:40;;;;;;;6.22;1.15;;;14.40;99.90;;;;;;5051586;28;20108;-46
2022/09/15 05:26:08;;;;;;;6.10;1.20;;;14.40;99.90;;;;;;5051398;28;20139;-49
2022/09/15 05:28:35;;;;;;;7.05;1.55;;;14.50;99.90;;;;;;5051440;28;20079;-48
2022/09/15 05:31:06;;;;;;;5.22;1.02;;;14.50;99.90;;;;;;5051438;28;20036;-46
2022/09/15 05:33:33;;;;;;;5.82;1.00;;;14.40;99.90;;;;;;5050787;28;20068;-46
2022/09/15 05:36:00;;;;;;;6.35;1.20;;;14.40;99.90;;;;;;5051358;28;20051;-46
2022/09/15 05:38:29;;;;;;;6.13;0.90;;;14.40;99.90;;;;;;5050965;28;20056;-46
2022/09/15 05:41:04;;;;;;;6.50;1.30;;;14.40;99.90;;;;;;5051421;28;20041;-47
2022/09/15 05:43:31;;;;;;;7.57;1.30;;;14.40;99.90;;;;;;5050973;28;20067;-46
2022/09/15 05:45:57;;;;;;;7.93;1.55;;;14.40;99.90;;;;;;5050484;28;20078;-49
2022/09/15 05:48:23;;;;;;;7.07;1.08;;;14.40;99.90;;;;;;5050864;28;20041;-49
2022/09/15 05:50:51;;;;;;;4.68;1.20;;;14.40;99.90;;;;;;5050962;28;20033;-48
2022/09/15 05:53:17;;;;;;;6.38;1.20;;;14.40;99.90;;;;;;5050678;28;20049;-47
2022/09/15 05:55:43;;;;;;;5.63;1.20;;;14.30;99.90;;;;;;5050588;28;20044;-47
2022/09/15 05:58:09;;;;;;;10.93;1.65;;;14.40;99.90;;;;;;5050664;28;20032;-48
2022/09/15 06:00:35;;;;;;;6.10;1.25;;;14.40;99.90;;;;;;5051051;28;20039;-47
2022/09/15 06:03:01;;;;;;;5.05;1.00;;;14.40;99.90;;;;;;5051752;28;20841;-50
2022/09/15 06:05:27;;;;;;;6.75;1.23;;;14.30;99.90;;;;;;5050930;28;20063;-48
2022/09/15 06:07:53;;;;;;;6.47;1.23;;;14.40;99.90;;;;;;5050970;28;20049;-52
2022/09/15 06:10:21;;;;;;;5.95;1.00;;;14.40;99.90;;;;;;5050789;28;20036;-48
2022/09/15 06:12:48;;;;;;;6.70;1.35;;;14.40;99.90;;;;;;5050812;28;20045;-47
2022/09/15 06:15:14;;;;;;;8.65;1.27;;;14.50;99.90;;;;;;5039397;28;20051;-48
2022/09/15 06:17:39;;;;;;;7.55;1.05;;;14.40;99.90;;;;;;5049930;28;20052;-47
2022/09/15 06:20:06;;;;;;;6.20;1.08;;;14.50;99.90;;;;;;5050722;28;20064;-47
2022/09/15 06:22:32;;;;;;;7.93;1.50;;;14.50;99.90;;;;;;5050575;28;20036;-47
2022/09/15 06:24:58;;;;;;;6.57;1.40;;;14.60;99.90;;;;;;5050818;28;20500;-48
2022/09/15 06:27:24;;;;;;;7.55;2.03;;;14.60;99.90;;;;;;5050731;28;20281;-47
2022/09/15 06:29:50;;;;;;;8.80;1.83;;;14.70;99.90;;;;;;5027249;28;20040;-51
2022/09/15 06:32:16;;;;;;;4.50;1.40;;;14.70;99.90;;;;;;5050600;28;20448;-47
2022/09/15 06:34:42;;;;;;;5.20;1.08;;;14.70;99.90;;;;;;5050622;28;20068;-50
2022/09/15 06:37:08;;;;;;;7.70;1.35;;;14.80;99.90;;;;;;5048706;28;20488;-49
2022/09/15 06:39:34;;;;;;;6.80;1.17;;;14.90;99.90;;;;;;5050534;28;20033;-48
2022/09/15 06:42:00;;;;;;;8.68;1.27;;;14.90;99.90;;;;;;5050311;28;20488;-47
2022/09/15 06:44:26;;;;;;;7.05;1.35;;;15.00;99.90;;;;;;5050552;28;20045;-48
2022/09/15 06:46:52;;;;;;;9.77;1.70;;;15.10;99.90;;;;;;5048612;28;20045;-47
2022/09/15 06:49:18;;;;;;;6.28;1.10;;;15.10;99.90;;;;;;5050104;28;20045;-47
2022/09/15 06:51:44;;;;;;;9.60;1.40;;;15.10;99.90;;;;;;5050092;28;20041;-47
2022/09/15 06:54:10;;;;;;;6.57;1.17;;;15.30;99.90;;;;;;5049780;28;20087;-48
2022/09/15 06:56:36;;;;;;;6.78;1.25;;;15.30;99.90;;;;;;5050135;28;20095;-48
2022/09/15 06:59:02;;;;;;;7.55;1.35;;;15.40;99.90;;;;;;5050373;28;20029;-48
2022/09/15 07:01:30;;;;;;;6.35;1.20;;;15.50;99.90;;;;;;5050331;28;20071;-49
2022/09/15 07:03:59;;;;;;;6.55;1.35;;;15.60;99.90;;;;;;5049925;28;20040;-47
2022/09/15 07:06:30;;;;;;;8.95;1.17;;;15.70;99.90;;;;;;5047073;28;20131;-48
2022/09/15 07:08:57;;;;;;;4.75;1.00;;;15.70;99.90;;;;;;5052559;28;20128;-48
2022/09/15 07:11:23;;;;;;;6.47;1.20;;;15.80;99.90;;;;;;5034855;28;20049;-47
2022/09/15 07:13:49;;;;;;;6.00;1.23;;;15.80;99.90;;;;;;5052789;28;20044;-51
2022/09/15 07:16:17;;;;;;;5.68;1.00;;;15.80;99.90;;;;;;5051274;28;20053;-45
2022/09/15 07:18:47;;;;;;;5.57;1.15;;;15.80;99.90;;;;;;5036574;28;20048;-44
2022/09/15 07:21:15;;;;;;;7.97;1.38;;;15.80;99.90;;;;;;5051055;28;20033;-44
2022/09/15 07:23:42;;;;;;;8.15;1.20;;;15.80;99.90;;;;;;5051268;28;20041;-45
2022/09/15 07:26:18;;;;;;;7.32;1.33;;;15.80;99.90;;;;;;5051099;28;20392;-49
2022/09/15 07:28:48;;;;;;;7.60;1.10;;;15.80;99.90;;;;;;5051805;28;20147;-45
2022/09/15 07:31:16;;;;;;;5.78;1.17;;;15.80;99.90;;;;;;5051187;28;20037;-43
2022/09/15 07:33:42;;;;;;;6.65;1.20;;;15.90;99.90;;;;;;5049997;28;20523;-47
2022/09/15 07:36:09;;;;;;;10.68;1.30;;;15.90;99.90;;;;;;5050271;28;20064;-45
2022/09/15 07:38:39;;;;;;;5.63;1.00;;;15.90;99.90;;;;;;5051096;28;20360;-45
2022/09/15 07:41:17;;;;;;;5.13;1.15;;;16.00;99.90;;;;;;5051160;28;20068;-46
2022/09/15 07:43:54;;;;;;;5.18;0.98;;;16.00;99.90;;;;;;5047100;28;20551;-47
2022/09/15 07:46:21;;;;;;;4.18;0.82;;;16.00;99.90;;;;;;5047273;28;20128;-44
2022/09/15 07:48:49;;;;;;;7.13;1.00;;;16.00;99.90;;;;;;5050851;28;20041;-46
2022/09/15 07:51:16;;;;;;;5.85;0.70;;;16.10;99.90;;;;;;5051150;28;20040;-46
2022/09/15 07:53:43;;;;;;;6.35;1.10;;;16.10;99.90;;;;;;5050817;28;20041;-46
2022/09/15 07:56:09;;;;;;;5.40;1.00;;;16.10;99.90;;;;;;5051106;28;20480;-47
2022/09/15 07:58:35;;;;;;;6.65;1.00;;;16.10;99.90;;;;;;5051284;28;20040;-46
2022/09/15 08:01:02;;;;;;;6.38;1.30;;;16.10;99.90;;;;;;5049458;28;20037;-46
2022/09/15 08:03:28;;;;;;;5.28;0.80;;;16.10;99.90;;;;;;5051595;28;20128;-47
2022/09/15 08:05:58;;;;;;;4.55;0.82;;;16.10;99.90;;;;;;5050200;28;20507;-45
2022/09/15 08:08:24;;;;;;;5.30;0.90;;;16.00;99.90;;;;;;5050996;28;20041;-48
2022/09/15 08:10:50;;;;;;;4.55;0.93;;;16.00;99.90;;;;;;5049116;28;20044;-46
2022/09/15 08:13:15;;;;;;;6.72;1.00;;;16.00;99.90;;;;;;5043656;28;20125;-47
2022/09/15 08:15:41;;;;;;;4.25;0.88;;;15.90;99.90;;;;;;5023623;28;20052;-48
2022/09/15 08:18:06;;;;;;;6.30;1.17;;;16.00;99.90;;;;;;5012195;28;20049;-48
2022/09/15 08:20:32;;;;;;;5.22;1.00;;;16.00;99.90;;;;;;5045242;28;20033;-48
2022/09/15 08:22:58;;;;;;;6.88;1.08;;;16.00;99.90;;;;;;5043777;28;20037;-51
2022/09/15 08:25:24;;;;;;;7.60;1.52;;;16.20;99.90;;;;;;5042800;28;20040;-47
2022/09/15 08:27:52;;;;;;;6.85;1.05;;;16.20;99.90;;;;;;5042592;28;20049;-47
2022/09/15 08:30:19;;;;;;;6.78;1.15;;;16.30;99.90;;;;;;5047952;28;20040;-46
2022/09/15 08:32:45;;;;;;;4.28;1.13;;;16.30;99.90;;;;;;5045657;28;20052;-50
2022/09/15 08:35:11;;;;;;;7.15;1.27;;;16.40;99.90;;;;;;5048948;28;20052;-49
2022/09/15 08:37:36;;;;;;;7.57;1.20;;;16.40;99.90;;;;;;5050496;28;20041;-50
2022/09/15 08:40:02;;;;;;;3.80;1.15;;;16.50;99.90;;;;;;5050600;28;20029;-47
2022/09/15 08:42:29;;;;;;;6.03;1.60;;;16.50;99.90;;;;;;5050588;28;20039;-47
2022/09/15 08:45:03;;;;;;;9.30;1.70;;;16.50;99.90;;;;;;5050780;28;20243;-47
2022/09/15 08:47:34;;;;;;;6.97;1.80;;;16.50;99.90;;;;;;5032304;28;20048;-47
2022/09/15 08:50:26;;;;;;;8.75;2.05;;;16.50;99.90;;;;;;5049524;28;20037;-48
2022/09/15 08:53:08;;;;;;;7.55;1.75;;;16.50;99.90;;;;;;5050288;28;20051;-48
2022/09/15 08:55:36;;;;;;;7.70;1.65;;;16.50;99.90;;;;;;5050342;28;20052;-46
2022/09/15 08:58:03;;;;;;;7.95;2.35;;;16.60;99.90;;;;;;5048629;28;20039;-47
2022/09/15 09:00:30;;;;;;;9.18;2.55;;;16.80;99.90;;;;;;5048846;28;20025;-47
2022/09/15 09:03:07;;;;;;;8.70;2.60;;;16.80;99.90;;;;;;5049285;28;20125;-49
2022/09/15 09:06:02;;;;;;;9.10;3.20;;;16.80;99.90;;;;;;5048007;28;20079;-49
2022/09/15 09:08:36;;;;;;;14.00;5.13;;;16.80;99.90;;;;;;5048952;28;20041;-49
2022/09/15 09:11:19;;;;;;;18.23;6.07;;;16.70;99.90;;;;;;5046497;28;20095;-49
2022/09/15 09:14:17;;;;;;;18.27;7.82;;;16.80;99.90;;;;;;5045069;28;20056;-47
2022/09/15 09:16:56;;;;;;;17.23;7.53;;;17.00;99.90;;;;;;5038022;28;20670;-50
2022/09/15 09:19:56;;;;;;;21.95;8.95;;;17.40;99.90;;;;;;5024041;28;20041;-51
2022/09/15 09:22:24;;;;;;;10.15;2.50;;;17.70;99.90;;;;;;5041066;28;20045;-46
2022/09/15 09:24:53;;;;;;;6.60;1.55;;;17.90;99.90;;;;;;5045462;28;20480;-49
2022/09/15 09:27:23;;;;;;;4.50;1.10;;;17.90;99.90;;;;;;5046742;28;20033;-48
2022/09/15 09:30:06;;;;;;;5.45;1.08;;;17.90;99.90;;;;;;5043929;28;20064;-48
2022/09/15 09:32:47;;;;;;;4.70;1.20;;;18.20;99.90;;;;;;5042000;28;20076;-48
2022/09/15 09:35:23;;;;;;;8.45;1.25;;;18.20;99.90;;;;;;5042308;28;20364;-50
2022/09/15 09:37:51;;;;;;;8.57;1.60;;;18.10;99.90;;;;;;5042731;28;20388;-50
2022/09/15 09:40:17;;;;;;;5.07;1.20;;;18.00;99.90;;;;;;5047342;28;20037;-48
2022/09/15 09:42:44;;;;;;;8.40;1.40;;;18.00;99.90;;;;;;5043021;28;20033;-49
2022/09/15 09:45:15;;;;;;;6.82;1.42;;;18.00;99.90;;;;;;5039817;28;20105;-46
2022/09/15 09:47:41;;;;;;;10.23;1.98;;;17.90;99.90;;;;;;5039883;28;20039;-46
2022/09/15 09:50:35;;;;;;;8.02;2.20;;;17.80;99.90;;;;;;5045058;28;20072;-46
2022/09/15 09:53:32;;;;;;;6.60;1.55;;;17.70;99.90;;;;;;5034854;28;20541;-51
2022/09/15 09:56:24;;;;;;;8.48;2.25;;;17.80;99.90;;;;;;5030463;28;20056;-46
2022/09/15 09:58:51;;;;;;;8.48;2.20;;;18.00;99.90;;;;;;5039373;28;20051;-46
2022/09/15 10:01:22;;;;;;;8.32;2.22;;;17.80;99.90;;;;;;5028284;28;20749;-48
2022/09/15 10:03:47;;;;;;;9.85;1.30;;;17.90;99.90;;;;;;5044971;28;20040;-44
2022/09/15 10:06:25;;;;;;;7.45;1.30;;;17.80;99.90;;;;;;5043159;28;20037;-45
2022/09/15 10:09:07;;;;;;;8.55;2.30;;;17.80;99.90;;;;;;5044471;28;20045;-45
2022/09/15 10:11:43;;;;;;;8.43;2.38;;;17.90;99.90;;;;;;5043981;28;20086;-45
2022/09/15 10:14:29;;;;;;;8.20;2.10;;;17.90;99.90;;;;;;5045695;28;20068;-46
2022/09/15 10:17:09;;;;;;;5.40;1.40;;;17.90;99.90;;;;;;5043692;28;20516;-48
2022/09/15 10:19:43;;;;;;;7.97;2.45;;;17.70;99.90;;;;;;5041534;28;20112;-47
2022/09/15 10:22:23;;;;;;;6.20;2.10;;;17.60;99.90;;;;;;5045829;28;20040;-47
2022/09/15 10:24:49;;;;;;;10.35;2.13;;;17.50;99.90;;;;;;5042071;28;20040;-44
2022/09/15 10:27:19;;;;;;;8.05;1.38;;;17.20;99.90;;;;;;5044012;28;20048;-46
2022/09/15 10:29:45;;;;;;;7.40;1.52;;;17.20;99.90;;;;;;5044776;28;20045;-49
2022/09/15 10:32:26;;;;;;;5.78;1.20;;;17.20;99.90;;;;;;5041949;28;20037;-50
2022/09/15 10:35:04;;;;;;;6.25;1.38;;;17.30;99.90;;;;;;5024824;28;20052;-46
2022/09/15 10:37:48;;;;;;;6.72;1.75;;;17.30;99.90;;;;;;5044552;28;20050;-46
2022/09/15 10:40:17;;;;;;;3.10;0.80;;;17.30;99.90;;;;;;5047350;28;20982;-45
2022/09/15 10:42:52;;;;;;;3.00;0.93;;;17.40;99.90;;;;;;5044834;28;20496;-47
2022/09/15 10:45:38;;;;;;;2.53;0.70;;;17.70;99.90;;;;;;5046383;28;20037;-46
2022/09/15 10:48:20;;;;;;;5.10;0.98;;;18.10;99.90;;;;;;5050497;28;20052;-46
2022/09/15 10:51:20;;;;;;;5.78;1.02;;;18.20;99.90;;;;;;5047705;28;20131;-46
2022/09/15 10:54:03;;;;;;;5.25;1.00;;;18.70;99.90;;;;;;5044955;28;20476;-47
2022/09/15 10:56:48;;;;;;;3.17;0.63;;;19.00;99.90;;;;;;5042808;28;20045;-48
2022/09/15 10:59:34;;;;;;;4.68;1.10;;;18.80;99.90;;;;;;5047843;28;20634;-48
2022/09/15 11:02:27;;;;;;;8.85;1.80;;;18.80;99.90;;;;;;5049249;28;20079;-44
2022/09/15 11:04:59;;;;;;;7.85;2.75;;;18.70;99.90;;;;;;5016737;28;20045;-47
2022/09/15 11:07:54;;;;;;;10.35;2.92;;;19.00;99.90;;;;;;5051130;28;20403;-47
2022/09/15 11:10:38;;;;;;;9.32;3.70;;;19.50;99.90;;;;;;5040938;28;20437;-47
2022/09/15 11:13:07;;;;;;;7.30;2.50;;;19.90;99.90;;;;;;5051718;28;20041;-46
2022/09/15 11:15:42;;;;;;;5.93;1.70;;;19.70;99.90;;;;;;5051497;28;20045;-46
2022/09/15 11:18:41;;;;;;;7.80;1.23;;;19.40;99.70;;;;;;5049018;28;20032;-47
2022/09/15 11:21:33;;;;;;;3.92;0.73;;;19.30;99.90;;;;;;5034854;28;20041;-46
2022/09/15 11:24:11;;;;;;;5.45;0.80;;;19.00;99.90;;;;;;5041191;28;20041;-44
2022/09/15 11:26:45;;;;;;;5.43;1.25;;;18.90;99.90;;;;;;5049673;28;20499;-46
2022/09/15 11:29:46;;;;;;;5.22;0.85;;;18.90;99.90;;;;;;5051973;28;20041;-45
2022/09/15 11:32:23;;;;;;;4.75;0.80;;;18.60;99.90;;;;;;5035584;28;20624;-47
2022/09/15 11:35:22;;;;;;;6.38;1.33;;;18.40;99.90;;;;;;5050042;28;20055;-48
2022/09/15 11:37:50;;;;;;;7.40;1.52;;;18.20;99.90;;;;;;5049671;28;20045;-48
2022/09/15 11:40:32;;;;;;;8.45;2.00;;;18.10;99.90;;;;;;5050583;28;20072;-46
2022/09/15 11:43:36;;;;;;;7.05;1.55;;;18.10;99.90;;;;;;5051011;28;20039;-46
2022/09/15 11:46:08;;;;;;;5.45;1.17;;;17.90;99.90;;;;;;5050213;28;20049;-46
2022/09/15 11:49:06;;;;;;;8.35;1.17;;;18.00;99.90;;;;;;5052245;28;20064;-47
2022/09/15 11:51:41;;;;;;;6.18;0.90;;;18.10;99.90;;;;;;5051580;28;20048;-45
2022/09/15 11:54:35;;;;;;;5.32;1.15;;;18.20;99.90;;;;;;5051205;28;20044;-45
2022/09/15 11:57:01;;;;;;;4.43;0.90;;;18.50;99.90;;;;;;5000591;28;20593;-45
2022/09/15 11:59:39;;;;;;;4.95;0.80;;;18.30;99.90;;;;;;5052367;28;20068;-48
2022/09/15 12:02:21;;;;;;;4.07;1.00;;;18.60;99.90;;;;;;5051655;28;20044;-47
2022/09/15 12:05:13;;;;;;;5.15;0.77;;;18.70;99.90;;;;;;5051502;28;20104;-46
2022/09/15 12:07:53;;;;;;;4.57;1.05;;;18.50;99.90;;;;;;5051888;28;20041;-46
2022/09/15 12:10:41;;;;;;;6.10;1.05;;;18.50;99.90;;;;;;5043409;28;20828;-48
2022/09/15 12:13:21;;;;;;;4.15;0.90;;;18.70;99.90;;;;;;5037374;28;20041;-45
2022/09/15 12:15:48;;;;;;;3.58;0.70;;;18.80;99.90;;;;;;5049659;28;20132;-47
2022/09/15 12:18:46;;;;;;;5.57;0.98;;;18.80;99.90;;;;;;5049831;28;20075;-48
2022/09/15 12:21:25;;;;;;;7.15;1.00;;;19.00;99.90;;;;;;5049036;28;20037;-45
2022/09/15 12:23:56;;;;;;;3.75;0.68;;;19.40;99.90;;;;;;5049242;28;20081;-49
2022/09/15 12:26:24;;;;;;;6.53;1.02;;;20.10;99.80;;;;;;5050454;28;20052;-47
2022/09/15 12:28:53;;;;;;;3.50;1.13;;;20.50;99.90;;;;;;5050758;28;20087;-48
2022/09/15 12:31:25;;;;;;;4.53;0.70;;;20.60;98.50;;;;;;5050859;28;20033;-48
2022/09/15 12:34:03;;;;;;;3.55;0.60;;;21.00;99.50;;;;;;5051198;28;20056;-48
2022/09/15 12:36:49;;;;;;;5.18;0.68;;;20.40;98.40;;;;;;5050971;28;20362;-48
2022/09/15 12:39:38;;;;;;;4.55;0.90;;;19.70;99.90;;;;;;5049254;28;20106;-48
2022/09/15 12:42:22;;;;;;;4.55;0.85;;;18.90;99.90;;;;;;5049896;28;20098;-50
2022/09/15 12:45:03;;;;;;;3.65;0.80;;;18.40;99.90;;;;;;5050996;28;20116;-45
2022/09/15 12:47:38;;;;;;;4.40;0.88;;;17.60;99.90;;;;;;5050595;28;20065;-48
2022/09/15 12:50:12;;;;;;;3.65;0.70;;;17.10;99.90;;;;;;5049271;28;20045;-47
2022/09/15 12:52:52;;;;;;;3.35;0.80;;;16.70;99.90;;;;;;5050246;28;20603;-46
2022/09/15 12:55:26;;;;;;;3.30;0.75;;;16.60;99.90;;;;;;5050419;28;20085;-47
2022/09/15 12:57:58;;;;;;;4.53;0.93;;;16.50;99.90;;;;;;5046012;28;20128;-46
2022/09/15 13:00:29;;;;;;;5.40;1.10;;;16.10;99.90;;;;;;5048510;28;20045;-51
2022/09/15 13:02:55;;;;;;;5.32;1.38;;;16.20;99.90;;;;;;5046287;28;20048;-48
2022/09/15 13:05:39;;;;;;;6.93;1.90;;;16.30;99.90;;;;;;5049389;28;20094;-52
2022/09/15 13:08:11;;;;;;;6.28;1.20;;;16.40;99.90;;;;;;5048935;28;20064;-48
2022/09/15 13:10:43;;;;;;;5.68;1.42;;;16.60;99.90;;;;;;5049175;28;20037;-48
2022/09/15 13:13:48;;;;;;;5.32;0.90;;;16.60;99.90;;;;;;5049989;28;20072;-48
2022/09/15 13:16:26;;;;;;;5.80;1.17;;;16.70;99.90;;;;;;5008067;28;20424;-50